createdAt,value
2019-04-06T00:03:42.303Z,18.13
2019-04-06T00:08:48.382Z,16.87
2019-04-06T00:13:55.464Z,18.00
2019-04-06T00:19:03.345Z,16.97
2019-04-06T00:24:09.404Z,18.57
2019-04-06T00:29:15.747Z,16.00
2019-04-06T00:34:22.711Z,15.83
2019-04-06T00:39:30.775Z,17.87
2019-04-06T00:44:40.059Z,18.67
2019-04-06T00:49:46.059Z,17.33
2019-04-06T00:54:52.769Z,17.77
2019-04-06T00:59:59.887Z,17.70
2019-04-06T01:05:07.418Z,17.47
2019-04-06T01:10:12.837Z,17.50
2019-04-06T01:15:19.454Z,17.93
2019-04-06T01:20:26.716Z,18.73
2019-04-06T01:25:33.085Z,17.57
2019-04-06T01:30:41.642Z,17.07
2019-04-06T01:35:47.987Z,18.87
2019-04-06T01:40:56.396Z,18.23
2019-04-06T01:46:03.152Z,19.90
2019-04-06T01:51:09.323Z,18.13
2019-04-06T01:56:18.710Z,19.23
2019-04-06T02:01:41.803Z,20.73
2019-04-06T02:06:49.679Z,18.80
2019-04-06T02:11:57.342Z,20.30
2019-04-06T02:17:07.990Z,19.63
2019-04-06T02:22:14.465Z,20.07
2019-04-06T02:27:20.577Z,18.80
2019-04-06T02:32:55.718Z,19.47
2019-04-06T02:38:09.983Z,18.43
2019-04-06T02:43:23.436Z,18.47
2019-04-06T02:48:30.432Z,18.43
2019-04-06T02:53:36.959Z,19.47
2019-04-06T02:58:42.556Z,20.03
2019-04-06T03:03:49.432Z,19.50
2019-04-06T03:08:56.454Z,19.97
2019-04-06T03:14:07.837Z,19.37
2019-04-06T03:19:14.310Z,19.20
2019-04-06T03:24:22.780Z,20.27
2019-04-06T03:29:31.168Z,19.30
2019-04-06T03:34:38.093Z,20.50
2019-04-06T03:39:44.381Z,20.30
2019-04-06T03:44:51.826Z,19.73
2019-04-06T03:49:59.133Z,18.70
2019-04-06T03:55:08.187Z,19.87
2019-04-06T04:00:16.297Z,18.57
2019-04-06T04:05:22.981Z,19.60
2019-04-06T04:10:37.322Z,19.70
2019-04-06T04:15:43.579Z,20.93
2019-04-06T04:20:50.368Z,20.00
2019-04-06T04:25:58.596Z,18.83
2019-04-06T04:31:04.034Z,19.80
2019-04-06T04:36:10.845Z,20.60
2019-04-06T04:41:24.408Z,20.63
2019-04-06T04:46:31.066Z,19.63
2019-04-06T04:51:38.868Z,19.73
2019-04-06T04:56:47.282Z,20.73
2019-04-06T05:01:52.752Z,20.63
2019-04-06T05:06:59.998Z,21.07
2019-04-06T05:12:06.530Z,20.93
2019-04-06T05:17:13.653Z,20.00
2019-04-06T05:22:19.879Z,20.40
2019-04-06T05:27:26.999Z,19.70
2019-04-06T05:32:32.773Z,19.97
2019-04-06T05:37:41.926Z,19.47
2019-04-06T05:42:54.316Z,20.10
2019-04-06T05:48:01.438Z,19.70
2019-04-06T05:53:07.917Z,20.43
2019-04-06T05:58:13.954Z,21.20
2019-04-06T06:03:22.406Z,21.77
2019-04-06T06:08:30.403Z,21.40
2019-04-06T06:13:35.644Z,19.77
2019-04-06T06:18:42.254Z,19.57
2019-04-06T06:23:47.648Z,20.40
2019-04-06T06:28:53.826Z,19.90
2019-04-06T06:33:59.760Z,20.87
2019-04-06T06:39:06.892Z,18.83
2019-04-06T06:44:14.748Z,21.23
2019-04-06T06:49:24.873Z,21.30
2019-04-06T06:54:31.319Z,20.63
2019-04-06T06:59:37.033Z,22.23
2019-04-06T07:04:44.416Z,20.73
2019-04-06T07:09:50.418Z,20.90
2019-04-06T07:14:56.696Z,20.90
2019-04-06T07:20:03.883Z,21.33
2019-04-06T07:25:10.723Z,21.73
2019-04-06T07:30:16.543Z,20.50
2019-04-06T07:35:22.956Z,21.80
2019-04-06T07:40:30.124Z,21.23
2019-04-06T07:45:36.316Z,21.27
2019-04-06T07:50:42.013Z,22.07
2019-04-06T07:55:48.258Z,22.33
2019-04-06T08:00:55.551Z,23.20
2019-04-06T08:06:02.268Z,22.57
2019-04-06T08:11:08.636Z,23.27
2019-04-06T08:16:15.940Z,22.73
2019-04-06T08:21:23.685Z,23.00
2019-04-06T08:26:29.686Z,22.70
2019-04-06T08:37:40.241Z,23.47
2019-04-06T08:43:09.184Z,24.03
2019-04-06T08:48:15.644Z,23.27
2019-04-06T08:53:28.729Z,23.37
2019-04-06T08:58:37.087Z,20.20
2019-04-06T09:03:42.782Z,21.97
2019-04-06T09:08:50.107Z,22.37
2019-04-06T09:13:56.127Z,21.37
2019-04-06T09:19:18.368Z,21.57
2019-04-06T09:24:24.821Z,22.20
2019-04-06T09:29:38.870Z,23.33
2019-04-06T09:34:44.644Z,22.23
2019-04-06T09:39:51.512Z,23.53
2019-04-06T09:45:16.949Z,22.20
2019-04-06T09:50:29.963Z,22.17
2019-04-06T09:55:45.493Z,22.87
2019-04-06T10:01:17.344Z,21.77
2019-04-06T10:06:45.815Z,23.37
2019-04-06T10:12:11.263Z,20.73
2019-04-06T10:17:42.164Z,21.47
2019-04-06T10:23:21.780Z,13.90
2019-04-06T10:28:52.477Z,21.03
2019-04-06T10:34:17.472Z,21.13
2019-04-06T10:39:33.211Z,21.47
2019-04-06T10:45:10.604Z,23.27
2019-04-06T10:50:34.224Z,22.13
2019-04-06T10:55:59.619Z,22.07
2019-04-06T11:01:36.457Z,21.50
2019-04-06T11:07:19.373Z,20.33
2019-04-06T11:12:56.368Z,20.70
2019-04-06T11:18:20.252Z,21.10
2019-04-06T11:23:41.491Z,21.00
2019-04-06T11:29:14.197Z,19.70
2019-04-06T11:34:38.830Z,21.00
2019-04-06T11:40:03.784Z,21.33
2019-04-06T11:45:15.259Z,22.13
2019-04-06T11:50:51.691Z,21.33
2019-04-06T11:56:05.076Z,21.90
2019-04-06T12:01:28.887Z,21.97
2019-04-06T12:07:09.118Z,21.87
2019-04-06T12:12:28.338Z,21.43
2019-04-06T12:17:52.834Z,23.07
2019-04-06T12:23:22.766Z,22.03
2019-04-06T12:28:56.547Z,21.77
2019-04-06T12:34:21.582Z,22.87
2019-04-06T12:39:56.953Z,21.70
2019-04-06T12:45:22.570Z,20.87
2019-04-06T12:50:51.476Z,21.90
2019-04-06T12:56:14.414Z,22.87
2019-04-06T13:01:39.662Z,22.90
2019-04-06T13:07:04.921Z,22.80
2019-04-06T13:12:30.025Z,23.60
2019-04-06T13:17:49.583Z,22.40
2019-04-06T13:23:13.356Z,22.00
2019-04-06T13:28:48.643Z,20.97
2019-04-06T13:34:12.459Z,21.37
2019-04-06T13:39:41.419Z,21.30
2019-04-06T13:45:07.012Z,22.50
2019-04-06T13:50:39.394Z,21.70
2019-04-06T13:56:16.354Z,20.07
2019-04-06T14:01:39.573Z,20.77
2019-04-06T14:07:03.676Z,19.83
2019-04-06T14:12:37.830Z,19.33
2019-04-06T14:18:03.532Z,21.47
2019-04-06T14:23:30.979Z,20.60
2019-04-06T14:28:59.402Z,20.00
2019-04-06T14:34:16.558Z,21.23
2019-04-06T14:39:41.162Z,20.47
2019-04-06T14:44:55.401Z,21.27
2019-04-06T14:50:23.132Z,21.47
2019-04-06T14:55:45.741Z,20.20
2019-04-06T15:01:01.281Z,22.80
2019-04-06T15:06:26.082Z,21.60
2019-04-06T15:11:51.479Z,22.30
2019-04-06T15:17:10.605Z,23.27
2019-04-06T15:22:31.282Z,22.07
2019-04-06T15:28:00.700Z,23.60
2019-04-06T15:33:30.978Z,40.50
2019-04-06T15:39:10.721Z,30.90
2019-04-06T15:44:34.911Z,20.63
2019-04-06T15:50:07.893Z,19.57
2019-04-06T15:55:33.569Z,22.77
2019-04-06T16:01:01.950Z,21.70
2019-04-06T16:06:27.106Z,21.83
2019-04-06T16:11:54.130Z,22.57
2019-04-06T16:17:13.794Z,21.17
2019-04-06T16:22:30.182Z,20.77
2019-04-06T16:27:56.822Z,21.33
2019-04-06T16:33:21.895Z,21.07
2019-04-06T16:38:47.778Z,22.00
2019-04-06T16:44:14.525Z,21.63
2019-04-06T16:49:33.291Z,20.67
2019-04-06T16:54:49.619Z,21.07
2019-04-06T17:00:20.443Z,21.87
2019-04-06T17:05:45.187Z,20.87
2019-04-06T17:11:08.626Z,21.17
2019-04-06T17:16:29.027Z,22.07
2019-04-06T17:21:58.802Z,20.23
2019-04-06T17:27:27.028Z,18.87
2019-04-06T17:32:55.217Z,20.40
2019-04-06T17:38:19.173Z,20.13
2019-04-06T17:43:48.498Z,19.63
2019-04-06T17:49:13.192Z,19.10
2019-04-06T17:54:50.825Z,19.50
2019-04-06T18:00:16.365Z,18.43
2019-04-06T18:05:45.865Z,19.23
2019-04-06T18:11:19.798Z,18.07
2019-04-06T18:16:30.374Z,17.53
2019-04-06T18:21:38.145Z,16.43
2019-04-06T18:26:47.571Z,16.97
2019-04-06T18:32:18.611Z,18.60
2019-04-06T18:37:44.686Z,17.77
2019-04-06T18:42:50.743Z,19.10
2019-04-06T18:47:59.255Z,19.33
2019-04-06T18:53:06.083Z,18.67
2019-04-06T18:58:13.760Z,19.13
2019-04-06T19:03:19.434Z,20.87
2019-04-06T19:08:27.344Z,19.30
2019-04-06T19:13:32.918Z,19.27
2019-04-06T19:18:41.048Z,19.07
2019-04-06T19:23:47.219Z,21.77
2019-04-06T19:28:55.756Z,21.37
2019-04-06T19:34:02.313Z,19.47
2019-04-06T19:39:15.123Z,19.87
2019-04-06T19:44:21.653Z,19.63
2019-04-06T19:49:27.633Z,19.70
2019-04-06T19:54:34.421Z,20.33
2019-04-06T19:59:41.761Z,19.40
2019-04-06T20:04:51.797Z,20.23
2019-04-06T20:09:58.293Z,23.47
2019-04-06T20:15:22.413Z,24.73
2019-04-06T20:20:41.055Z,23.10
2019-04-06T20:25:46.375Z,23.43
2019-04-06T20:30:51.553Z,25.30
2019-04-06T20:35:58.669Z,23.67
2019-04-06T20:41:04.399Z,23.93
2019-04-06T20:51:51.296Z,25.00
2019-04-06T20:56:58.935Z,25.63
2019-04-06T21:02:05.684Z,24.73
2019-04-06T21:07:12.274Z,24.53
2019-04-06T21:12:18.579Z,23.67
2019-04-06T21:18:05.433Z,24.27
2019-04-06T21:23:12.844Z,24.10
2019-04-06T21:28:21.468Z,22.47
2019-04-06T21:33:29.805Z,23.47
2019-04-06T21:38:35.898Z,22.33
2019-04-06T21:43:44.619Z,23.03
2019-04-06T21:48:50.855Z,21.90
2019-04-06T21:53:57.564Z,22.30
2019-04-06T21:59:16.088Z,22.80
2019-04-06T22:04:25.965Z,20.83
2019-04-06T22:09:31.331Z,21.30
2019-04-06T22:14:38.768Z,22.23
2019-04-06T22:19:46.115Z,23.70
2019-04-06T22:24:52.708Z,21.50
2019-04-06T22:29:59.126Z,23.70
2019-04-06T22:35:16.943Z,23.37
2019-04-06T22:40:22.131Z,23.20
2019-04-06T22:45:29.821Z,23.93
2019-04-06T22:50:37.138Z,23.17
2019-04-06T22:55:43.049Z,24.70
2019-04-06T23:00:52.875Z,24.63
2019-04-06T23:06:04.261Z,24.43
2019-04-06T23:11:09.712Z,24.73
2019-04-06T23:16:54.076Z,24.17
2019-04-06T23:22:02.823Z,24.63
2019-04-06T23:27:12.291Z,24.67
2019-04-06T23:32:18.662Z,25.03
2019-04-06T23:37:24.794Z,25.70
2019-04-06T23:42:30.074Z,25.03
2019-04-06T23:47:36.225Z,24.60
2019-04-06T23:52:42.508Z,24.37
2019-04-06T23:57:48.079Z,23.47
